sensor_id;sensor_type;location;lat;lon;timestamp;pressure;altitude;pressure_sealevel;temperature;humidity
5812;BME280;2932;52.400;9.558;2023-03-04T00:00:23;101634.28;;;7.49;67.52
5812;BME280;2932;52.400;9.558;2023-03-04T00:02:48;101628.63;;;7.22;67.95
5812;BME280;2932;52.400;9.558;2023-03-04T00:05:14;101637.88;;;7.31;68.29
5812;BME280;2932;52.400;9.558;2023-03-04T00:07:39;101634.22;;;7.68;67.62
5812;BME280;2932;52.400;9.558;2023-03-04T00:10:05;101634.28;;;7.49;67.82
5812;BME280;2932;52.400;9.558;2023-03-04T00:12:30;101632.31;;;7.82;67.26
5812;BME280;2932;52.400;9.558;2023-03-04T00:14:56;101633.09;;;7.55;67.10
5812;BME280;2932;52.400;9.558;2023-03-04T00:17:21;101630.09;;;7.84;67.01
5812;BME280;2932;52.400;9.558;2023-03-04T00:19:47;101632.53;;;7.86;66.60
5812;BME280;2932;52.400;9.558;2023-03-04T00:22:12;101624.19;;;7.91;66.38
5812;BME280;2932;52.400;9.558;2023-03-04T00:24:37;101633.41;;;7.67;67.35
5812;BME280;2932;52.400;9.558;2023-03-04T00:27:03;101629.72;;;7.58;67.50
5812;BME280;2932;52.400;9.558;2023-03-04T00:29:28;101637.06;;;7.63;67.53
5812;BME280;2932;52.400;9.558;2023-03-04T00:31:54;101630.22;;;7.60;67.33
5812;BME280;2932;52.400;9.558;2023-03-04T00:34:19;101624.53;;;7.57;67.42
5812;BME280;2932;52.400;9.558;2023-03-04T00:36:45;101633.09;;;7.55;67.52
5812;BME280;2932;52.400;9.558;2023-03-04T00:39:11;101621.56;;;7.67;67.70
5812;BME280;2932;52.400;9.558;2023-03-04T00:41:37;101613.22;;;7.40;67.95
5812;BME280;2932;52.400;9.558;2023-03-04T00:44:03;101619.25;;;7.42;68.10
5812;BME280;2932;52.400;9.558;2023-03-04T00:46:29;101624.84;;;7.36;68.56
5812;BME280;2932;52.400;9.558;2023-03-04T00:48:54;101625.63;;;7.56;67.99
5812;BME280;2932;52.400;9.558;2023-03-04T00:51:19;101613.44;;;7.43;68.13
5812;BME280;2932;52.400;9.558;2023-03-04T00:53:45;101610.13;;;7.27;68.25
5812;BME280;2932;52.400;9.558;2023-03-04T00:56:11;101619.41;;;7.31;68.76
5812;BME280;2932;52.400;9.558;2023-03-04T00:58:37;101614.66;;;7.37;68.50
5812;BME280;2932;52.400;9.558;2023-03-04T01:01:03;101614.13;;;7.35;68.51
5812;BME280;2932;52.400;9.558;2023-03-04T01:03:28;101606.31;;;7.23;68.78
5812;BME280;2932;52.400;9.558;2023-03-04T01:05:57;101611.94;;;7.18;69.16
5812;BME280;2932;52.400;9.558;2023-03-04T01:08:22;101610.03;;;7.32;69.38
5812;BME280;2932;52.400;9.558;2023-03-04T01:10:48;101604.88;;;7.12;69.56
5812;BME280;2932;52.400;9.558;2023-03-04T01:13:13;101603.25;;;7.11;69.63
5812;BME280;2932;52.400;9.558;2023-03-04T01:15:38;101598.66;;;7.20;69.17
5812;BME280;2932;52.400;9.558;2023-03-04T01:18:04;101599.53;;;7.34;69.24
5812;BME280;2932;52.400;9.558;2023-03-04T01:20:29;101599.06;;;7.14;69.33
5812;BME280;2932;52.400;9.558;2023-03-04T01:22:54;101593.03;;;7.12;69.63
5812;BME280;2932;52.400;9.558;2023-03-04T01:25:20;101596.63;;;7.45;69.22
5812;BME280;2932;52.400;9.558;2023-03-04T01:27:45;101592.56;;;7.23;69.39
5812;BME280;2932;52.400;9.558;2023-03-04T01:30:11;101593.09;;;7.58;68.85
5812;BME280;2932;52.400;9.558;2023-03-04T01:32:36;101581.56;;;7.23;69.50
5812;BME280;2932;52.400;9.558;2023-03-04T01:35:02;101587.84;;;7.43;69.39
5812;BME280;2932;52.400;9.558;2023-03-04T01:37:27;101577.97;;;7.23;69.73
5812;BME280;2932;52.400;9.558;2023-03-04T01:39:52;101570.38;;;7.33;69.54
5812;BME280;2932;52.400;9.558;2023-03-04T01:42:22;101571.34;;;7.43;69.38
5812;BME280;2932;52.400;9.558;2023-03-04T01:44:50;101565.53;;;7.44;69.74
5812;BME280;2932;52.400;9.558;2023-03-04T01:47:16;101573.91;;;7.53;69.14
5812;BME280;2932;52.400;9.558;2023-03-04T01:49:42;101558.72;;;7.69;68.85
5812;BME280;2932;52.400;9.558;2023-03-04T01:52:12;101559.13;;;7.62;69.27
5812;BME280;2932;52.400;9.558;2023-03-04T01:54:38;101549.22;;;7.61;68.94
5812;BME280;2932;52.400;9.558;2023-03-04T01:57:24;101544.75;;;7.65;68.80
5812;BME280;2932;52.400;9.558;2023-03-04T02:02:55;101536.78;;;7.50;69.27
5812;BME280;2932;52.400;9.558;2023-03-04T02:05:22;101535.28;;;7.58;69.14
5812;BME280;2932;52.400;9.558;2023-03-04T02:07:48;101532.41;;;7.63;69.06
5812;BME280;2932;52.400;9.558;2023-03-04T02:10:14;101518.75;;;7.12;70.18
5812;BME280;2932;52.400;9.558;2023-03-04T02:12:47;101527.09;;;7.66;69.58
5812;BME280;2932;52.400;9.558;2023-03-04T02:15:20;101522.19;;;7.63;69.13
5812;BME280;2932;52.400;9.558;2023-03-04T02:17:49;101518.72;;;7.44;69.85
5812;BME280;2932;52.400;9.558;2023-03-04T02:29:46;101512.84;;;7.78;69.23
5812;BME280;2932;52.400;9.558;2023-03-04T02:32:25;101509.66;;;7.71;69.25
5812;BME280;2932;52.400;9.558;2023-03-04T02:34:55;101505.50;;;7.87;68.89
5812;BME280;2932;52.400;9.558;2023-03-04T02:37:26;101498.06;;;7.88;68.65
5812;BME280;2932;52.400;9.558;2023-03-04T02:39:58;101498.03;;;7.74;68.81
5812;BME280;2932;52.400;9.558;2023-03-04T02:42:31;101503.53;;;7.60;69.41
5812;BME280;2932;52.400;9.558;2023-03-04T02:45:34;101499.25;;;7.68;69.13
5812;BME280;2932;52.400;9.558;2023-03-04T02:48:00;101499.06;;;7.78;69.38
5812;BME280;2932;52.400;9.558;2023-03-04T02:50:27;101496.81;;;7.66;69.32
5812;BME280;2932;52.400;9.558;2023-03-04T02:52:53;101498.97;;;7.83;69.32
5812;BME280;2932;52.400;9.558;2023-03-04T02:55:19;101513.44;;;7.61;69.61
5812;BME280;2932;52.400;9.558;2023-03-04T02:57:44;101505.59;;;7.82;69.55
5812;BME280;2932;52.400;9.558;2023-03-04T03:00:10;101507.25;;;7.83;69.52
5812;BME280;2932;52.400;9.558;2023-03-04T03:02:35;101502.75;;;7.87;69.20
5812;BME280;2932;52.400;9.558;2023-03-04T03:05:01;101505.59;;;7.68;69.71
5812;BME280;2932;52.400;9.558;2023-03-04T03:07:26;101502.94;;;7.63;69.86
5812;BME280;2932;52.400;9.558;2023-03-04T03:09:51;101496.00;;;7.66;69.76
5812;BME280;2932;52.400;9.558;2023-03-04T03:12:17;101499.97;;;7.74;69.53
5812;BME280;2932;52.400;9.558;2023-03-04T03:14:42;101510.00;;;7.97;69.05
5812;BME280;2932;52.400;9.558;2023-03-04T03:17:07;101496.03;;;7.93;68.90
5812;BME280;2932;52.400;9.558;2023-03-04T03:19:33;101493.75;;;8.09;68.57
5812;BME280;2932;52.400;9.558;2023-03-04T03:21:58;101502.53;;;8.11;68.67
5812;BME280;2932;52.400;9.558;2023-03-04T03:24:23;101499.97;;;8.01;68.91
5812;BME280;2932;52.400;9.558;2023-03-04T03:26:49;101490.50;;;7.93;68.61
5812;BME280;2932;52.400;9.558;2023-03-04T03:29:14;101492.34;;;7.98;69.21
5812;BME280;2932;52.400;9.558;2023-03-04T03:31:39;101490.00;;;7.91;69.74
5812;BME280;2932;52.400;9.558;2023-03-04T03:34:05;101496.72;;;7.99;69.70
5812;BME280;2932;52.400;9.558;2023-03-04T03:36:30;101496.38;;;8.28;68.84
5812;BME280;2932;52.400;9.558;2023-03-04T03:38:55;101493.06;;;8.53;68.27
5812;BME280;2932;52.400;9.558;2023-03-04T03:41:21;101479.44;;;8.07;68.65
5812;BME280;2932;52.400;9.558;2023-03-04T03:43:46;101487.22;;;8.05;69.04
5812;BME280;2932;52.400;9.558;2023-03-04T03:46:11;101483.38;;;7.92;69.51
5812;BME280;2932;52.400;9.558;2023-03-04T03:48:37;101485.50;;;7.82;70.13
5812;BME280;2932;52.400;9.558;2023-03-04T03:51:02;101482.56;;;7.92;69.85
5812;BME280;2932;52.400;9.558;2023-03-04T03:53:27;101476.09;;;7.69;70.09
5812;BME280;2932;52.400;9.558;2023-03-04T03:55:53;101471.72;;;7.54;71.15
5812;BME280;2932;52.400;9.558;2023-03-04T03:58:18;101478.84;;;7.69;71.24
5812;BME280;2932;52.400;9.558;2023-03-04T04:00:43;101477.75;;;7.70;71.29
5812;BME280;2932;52.400;9.558;2023-03-04T04:03:13;101474.06;;;7.61;71.57
5812;BME280;2932;52.400;9.558;2023-03-04T04:05:39;101475.31;;;7.82;71.23
5812;BME280;2932;52.400;9.558;2023-03-04T04:08:04;101470.63;;;7.55;72.08
5812;BME280;2932;52.400;9.558;2023-03-04T04:10:30;101480.72;;;7.87;71.77
5812;BME280;2932;52.400;9.558;2023-03-04T04:12:55;101478.81;;;8.24;70.71
5812;BME280;2932;52.400;9.558;2023-03-04T04:15:20;101465.78;;;8.02;71.13
5812;BME280;2932;52.400;9.558;2023-03-04T04:17:49;101479.69;;;7.83;72.11
5812;BME280;2932;52.400;9.558;2023-03-04T04:20:14;101486.00;;;7.97;72.05
5812;BME280;2932;52.400;9.558;2023-03-04T04:22:39;101478.06;;;7.82;72.31
5812;BME280;2932;52.400;9.558;2023-03-04T04:25:05;101474.88;;;7.48;73.95
5812;BME280;2932;52.400;9.558;2023-03-04T04:27:32;101475.09;;;7.51;74.20
5812;BME280;2932;52.400;9.558;2023-03-04T04:29:58;101479.97;;;7.68;74.04
5812;BME280;2932;52.400;9.558;2023-03-04T04:32:23;101469.06;;;7.49;74.38
5812;BME280;2932;52.400;9.558;2023-03-04T04:34:48;101465.97;;;7.23;75.13
5812;BME280;2932;52.400;9.558;2023-03-04T04:37:14;101466.22;;;7.41;74.67
5812;BME280;2932;52.400;9.558;2023-03-04T04:39:39;101457.31;;;7.30;75.26
5812;BME280;2932;52.400;9.558;2023-03-04T04:42:04;101463.81;;;7.20;75.18
5812;BME280;2932;52.400;9.558;2023-03-04T04:44:30;101457.72;;;7.37;75.24
5812;BME280;2932;52.400;9.558;2023-03-04T04:46:55;101451.31;;;7.42;75.26
5812;BME280;2932;52.400;9.558;2023-03-04T04:49:20;101448.88;;;7.54;74.95
5812;BME280;2932;52.400;9.558;2023-03-04T04:51:45;101450.63;;;7.50;74.74
5812;BME280;2932;52.400;9.558;2023-03-04T04:54:13;101445.00;;;7.68;73.98
5812;BME280;2932;52.400;9.558;2023-03-04T04:56:38;101445.41;;;7.62;74.24
5812;BME280;2932;52.400;9.558;2023-03-04T04:59:04;101444.91;;;7.46;74.13
5812;BME280;2932;52.400;9.558;2023-03-04T05:01:30;101445.81;;;7.42;74.61
5812;BME280;2932;52.400;9.558;2023-03-04T05:03:56;101443.94;;;7.23;75.09
5812;BME280;2932;52.400;9.558;2023-03-04T05:06:22;101439.88;;;7.34;75.55
5812;BME280;2932;52.400;9.558;2023-03-04T05:08:48;101436.63;;;7.19;75.67
5812;BME280;2932;52.400;9.558;2023-03-04T05:11:14;101438.53;;;7.05;75.98
5812;BME280;2932;52.400;9.558;2023-03-04T05:13:39;101433.72;;;6.96;76.32
5812;BME280;2932;52.400;9.558;2023-03-04T05:16:05;101433.25;;;7.08;76.48
5812;BME280;2932;52.400;9.558;2023-03-04T05:18:30;101434.56;;;7.11;76.16
5812;BME280;2932;52.400;9.558;2023-03-04T05:21:00;101435.13;;;6.94;76.60
5812;BME280;2932;52.400;9.558;2023-03-04T05:23:30;101429.63;;;6.94;76.56
5812;BME280;2932;52.400;9.558;2023-03-04T05:25:56;101426.34;;;6.92;76.74
5812;BME280;2932;52.400;9.558;2023-03-04T05:28:21;101424.06;;;6.80;76.97
5812;BME280;2932;52.400;9.558;2023-03-04T05:30:47;101425.31;;;6.74;76.90
5812;BME280;2932;52.400;9.558;2023-03-04T05:33:14;101434.06;;;6.76;76.80
5812;BME280;2932;52.400;9.558;2023-03-04T05:35:40;101436.63;;;6.86;76.85
5812;BME280;2932;52.400;9.558;2023-03-04T05:38:08;101434.38;;;6.75;76.89
5812;BME280;2932;52.400;9.558;2023-03-04T05:40:34;101427.53;;;6.72;76.87
5812;BME280;2932;52.400;9.558;2023-03-04T05:43:00;101436.09;;;6.84;77.37
5812;BME280;2932;52.400;9.558;2023-03-04T05:45:26;101425.38;;;6.69;77.29
5812;BME280;2932;52.400;9.558;2023-03-04T05:47:52;101433.72;;;6.96;77.14
5812;BME280;2932;52.400;9.558;2023-03-04T05:50:18;101435.88;;;6.67;77.78
5812;BME280;2932;52.400;9.558;2023-03-04T05:52:44;101435.44;;;6.60;78.04
5812;BME280;2932;52.400;9.558;2023-03-04T05:55:09;101439.91;;;6.88;77.48
5812;BME280;2932;52.400;9.558;2023-03-04T05:57:35;101436.72;;;6.81;77.96
5812;BME280;2932;52.400;9.558;2023-03-04T06:00:00;101436.16;;;6.65;78.17
5812;BME280;2932;52.400;9.558;2023-03-04T06:02:26;101424.06;;;6.66;77.85
5812;BME280;2932;52.400;9.558;2023-03-04T06:04:51;101430.38;;;6.67;77.96
5812;BME280;2932;52.400;9.558;2023-03-04T06:07:16;101429.19;;;6.87;77.64
5812;BME280;2932;52.400;9.558;2023-03-04T06:09:42;101429.56;;;6.80;77.74
5812;BME280;2932;52.400;9.558;2023-03-04T06:12:11;101427.31;;;6.68;78.02
5812;BME280;2932;52.400;9.558;2023-03-04T06:14:37;101437.28;;;6.97;77.25
5812;BME280;2932;52.400;9.558;2023-03-04T06:17:03;101423.69;;;6.73;77.46
5812;BME280;2932;52.400;9.558;2023-03-04T06:19:28;101424.88;;;6.48;78.35
5812;BME280;2932;52.400;9.558;2023-03-04T06:21:53;101422.50;;;6.42;79.27
5812;BME280;2932;52.400;9.558;2023-03-04T06:24:19;101413.38;;;6.46;79.21
5812;BME280;2932;52.400;9.558;2023-03-04T06:26:44;101425.19;;;6.47;79.40
5812;BME280;2932;52.400;9.558;2023-03-04T06:29:10;101417.31;;;6.59;79.02
5812;BME280;2932;52.400;9.558;2023-03-04T06:31:36;101428.16;;;6.83;78.60
5812;BME280;2932;52.400;9.558;2023-03-04T06:34:01;101426.59;;;6.63;78.76
5812;BME280;2932;52.400;9.558;2023-03-04T06:36:26;101429.63;;;6.61;78.83
5812;BME280;2932;52.400;9.558;2023-03-04T06:38:52;101432.13;;;6.77;78.72
5812;BME280;2932;52.400;9.558;2023-03-04T06:41:17;101424.59;;;6.50;78.91
5812;BME280;2932;52.400;9.558;2023-03-04T06:43:42;101440.56;;;6.66;78.85
5812;BME280;2932;52.400;9.558;2023-03-04T06:46:08;101425.53;;;6.59;79.12
5812;BME280;2932;52.400;9.558;2023-03-04T06:48:34;101430.53;;;6.57;79.73
5812;BME280;2932;52.400;9.558;2023-03-04T06:51:09;101429.94;;;6.60;79.71
5812;BME280;2932;52.400;9.558;2023-03-04T06:53:36;101431.31;;;6.76;79.07
5812;BME280;2932;52.400;9.558;2023-03-04T06:56:01;101439.34;;;6.73;79.26
5812;BME280;2932;52.400;9.558;2023-03-04T06:58:27;101438.88;;;6.84;78.92
5812;BME280;2932;52.400;9.558;2023-03-04T07:00:52;101443.53;;;6.84;79.57
5812;BME280;2932;52.400;9.558;2023-03-04T07:03:17;101437.94;;;6.75;79.65
5812;BME280;2932;52.400;9.558;2023-03-04T07:05:42;101441.22;;;6.91;79.55
5812;BME280;2932;52.400;9.558;2023-03-04T07:08:08;101433.72;;;6.64;81.17
5812;BME280;2932;52.400;9.558;2023-03-04T07:10:33;101435.94;;;6.94;81.49
5812;BME280;2932;52.400;9.558;2023-03-04T07:12:59;101435.78;;;6.72;82.05
5812;BME280;2932;52.400;9.558;2023-03-04T07:15:25;101441.16;;;6.45;83.55
5812;BME280;2932;52.400;9.558;2023-03-04T07:17:50;101442.22;;;6.81;82.68
5812;BME280;2932;52.400;9.558;2023-03-04T07:20:15;101443.00;;;6.68;83.26
5812;BME280;2932;52.400;9.558;2023-03-04T07:22:41;101434.97;;;6.72;83.23
5812;BME280;2932;52.400;9.558;2023-03-04T07:25:06;101431.78;;;6.64;83.60
5812;BME280;2932;52.400;9.558;2023-03-04T07:27:32;101433.28;;;6.57;83.27
5812;BME280;2932;52.400;9.558;2023-03-04T07:29:57;101453.06;;;6.91;82.49
5812;BME280;2932;52.400;9.558;2023-03-04T07:32:23;101441.78;;;7.07;81.83
5812;BME280;2932;52.400;9.558;2023-03-04T07:34:48;101442.31;;;7.22;81.45
5812;BME280;2932;52.400;9.558;2023-03-04T07:37:14;101446.31;;;7.16;81.99
5812;BME280;2932;52.400;9.558;2023-03-04T07:39:39;101446.94;;;6.94;82.59
5812;BME280;2932;52.400;9.558;2023-03-04T07:42:04;101443.94;;;7.10;82.02
5812;BME280;2932;52.400;9.558;2023-03-04T07:44:30;101445.97;;;7.04;82.05
5812;BME280;2932;52.400;9.558;2023-03-04T07:46:55;101440.38;;;7.23;82.59
5812;BME280;2932;52.400;9.558;2023-03-04T07:49:20;101447.25;;;7.39;82.13
5812;BME280;2932;52.400;9.558;2023-03-04T07:51:46;101439.56;;;7.22;82.07
5812;BME280;2932;52.400;9.558;2023-03-04T07:54:11;101444.88;;;7.19;82.79
5812;BME280;2932;52.400;9.558;2023-03-04T07:56:37;101441.34;;;6.99;83.32
5812;BME280;2932;52.400;9.558;2023-03-04T07:59:02;101439.31;;;7.51;82.21
5812;BME280;2932;52.400;9.558;2023-03-04T08:01:33;101447.53;;;7.79;81.28
5812;BME280;2932;52.400;9.558;2023-03-04T08:04:00;101433.34;;;7.17;82.55
5812;BME280;2932;52.400;9.558;2023-03-04T08:06:26;101443.28;;;7.59;82.45
5812;BME280;2932;52.400;9.558;2023-03-04T08:08:59;101441.97;;;7.56;82.86
5812;BME280;2932;52.400;9.558;2023-03-04T08:14:02;101440.63;;;7.54;83.34
5812;BME280;2932;52.400;9.558;2023-03-04T08:16:29;101438.09;;;7.57;83.20
5812;BME280;2932;52.400;9.558;2023-03-04T08:18:57;101434.31;;;7.53;82.49
5812;BME280;2932;52.400;9.558;2023-03-04T08:21:24;101434.22;;;7.58;82.99
5812;BME280;2932;52.400;9.558;2023-03-04T08:23:51;101436.94;;;7.45;83.70
5812;BME280;2932;52.400;9.558;2023-03-04T08:28:44;101431.53;;;7.40;83.43
5812;BME280;2932;52.400;9.558;2023-03-04T08:31:14;101424.81;;;7.46;83.25
5812;BME280;2932;52.400;9.558;2023-03-04T08:33:40;101425.09;;;7.72;82.96
5812;BME280;2932;52.400;9.558;2023-03-04T08:36:06;101428.91;;;7.48;83.05
5812;BME280;2932;52.400;9.558;2023-03-04T08:38:32;101416.94;;;7.66;82.94
5812;BME280;2932;52.400;9.558;2023-03-04T08:40:57;101432.56;;;7.44;83.74
5812;BME280;2932;52.400;9.558;2023-03-04T08:43:24;101421.84;;;7.42;83.94
5812;BME280;2932;52.400;9.558;2023-03-04T08:45:51;101426.25;;;7.43;84.27
5812;BME280;2932;52.400;9.558;2023-03-04T08:48:17;101419.31;;;7.46;83.93
5812;BME280;2932;52.400;9.558;2023-03-04T08:50:43;101413.91;;;7.41;83.71
5812;BME280;2932;52.400;9.558;2023-03-04T08:53:10;101422.69;;;7.56;84.18
5812;BME280;2932;52.400;9.558;2023-03-04T08:55:37;101430.72;;;7.80;83.48
5812;BME280;2932;52.400;9.558;2023-03-04T08:58:03;101427.25;;;7.75;82.87
5812;BME280;2932;52.400;9.558;2023-03-04T09:00:28;101433.94;;;8.10;82.32
5812;BME280;2932;52.400;9.558;2023-03-04T09:02:54;101434.94;;;8.14;82.29
5812;BME280;2932;52.400;9.558;2023-03-04T09:05:20;101441.47;;;8.18;81.79
5812;BME280;2932;52.400;9.558;2023-03-04T09:07:45;101444.81;;;8.28;81.25
5812;BME280;2932;52.400;9.558;2023-03-04T09:10:11;101450.25;;;8.06;81.62
5812;BME280;2932;52.400;9.558;2023-03-04T09:12:37;101445.75;;;8.38;80.63
5812;BME280;2932;52.400;9.558;2023-03-04T09:15:02;101441.22;;;7.92;82.02
5812;BME280;2932;52.400;9.558;2023-03-04T09:17:30;101443.63;;;8.07;81.86
5812;BME280;2932;52.400;9.558;2023-03-04T09:19:55;101450.13;;;8.25;81.38
5812;BME280;2932;52.400;9.558;2023-03-04T09:22:21;101442.34;;;7.91;81.80
5812;BME280;2932;52.400;9.558;2023-03-04T09:24:46;101449.44;;;8.06;81.77
5812;BME280;2932;52.400;9.558;2023-03-04T09:27:11;101448.97;;;7.76;83.35
5812;BME280;2932;52.400;9.558;2023-03-04T09:29:36;101460.47;;;8.06;83.06
5812;BME280;2932;52.400;9.558;2023-03-04T09:32:02;101455.34;;;8.85;81.43
5812;BME280;2932;52.400;9.558;2023-03-04T09:34:27;101453.38;;;8.41;81.27
5812;BME280;2932;52.400;9.558;2023-03-04T09:36:53;101455.69;;;8.47;81.78
5812;BME280;2932;52.400;9.558;2023-03-04T09:39:18;101456.16;;;8.63;80.93
5812;BME280;2932;52.400;9.558;2023-03-04T09:41:48;101458.16;;;8.49;81.16
5812;BME280;2932;52.400;9.558;2023-03-04T09:44:32;101462.88;;;8.71;79.78
5812;BME280;2932;52.400;9.558;2023-03-04T09:47:04;101447.94;;;8.49;79.38
5812;BME280;2932;52.400;9.558;2023-03-04T09:49:30;101459.19;;;8.75;79.69
5812;BME280;2932;52.400;9.558;2023-03-04T09:52:03;101463.06;;;8.74;78.79
5812;BME280;2932;52.400;9.558;2023-03-04T09:54:53;101454.22;;;8.63;77.73
5812;BME280;2932;52.400;9.558;2023-03-04T10:05:14;101449.78;;;8.40;76.04
5812;BME280;2932;52.400;9.558;2023-03-04T10:07:42;101441.34;;;8.23;75.21
5812;BME280;2932;52.400;9.558;2023-03-04T10:10:38;101438.81;;;8.62;74.23
5812;BME280;2932;52.400;9.558;2023-03-04T10:13:15;101446.50;;;8.52;73.58
5812;BME280;2932;52.400;9.558;2023-03-04T10:15:44;101445.75;;;8.82;73.51
5812;BME280;2932;52.400;9.558;2023-03-04T10:18:22;101447.56;;;8.87;72.67
5812;BME280;2932;52.400;9.558;2023-03-04T10:20:52;101449.56;;;8.95;72.67
5812;BME280;2932;52.400;9.558;2023-03-04T10:23:22;101440.84;;;9.01;71.76
5812;BME280;2932;52.400;9.558;2023-03-04T10:25:50;101442.63;;;9.59;70.84
5812;BME280;2932;52.400;9.558;2023-03-04T10:28:23;101442.94;;;10.23;70.05
5812;BME280;2932;52.400;9.558;2023-03-04T10:31:02;101444.44;;;10.38;68.88
5812;BME280;2932;52.400;9.558;2023-03-04T10:33:32;101438.88;;;10.47;67.12
5812;BME280;2932;52.400;9.558;2023-03-04T10:39:17;101425.97;;;9.99;66.02
5812;BME280;2932;52.400;9.558;2023-03-04T10:41:52;101422.59;;;9.62;66.84
5812;BME280;2932;52.400;9.558;2023-03-04T10:44:18;101431.19;;;10.09;66.97
5812;BME280;2932;52.400;9.558;2023-03-04T10:46:45;101427.81;;;10.21;66.10
5812;BME280;2932;52.400;9.558;2023-03-04T10:49:16;101433.19;;;10.26;65.58
5812;BME280;2932;52.400;9.558;2023-03-04T10:51:49;101425.63;;;9.92;66.77
5812;BME280;2932;52.400;9.558;2023-03-04T10:54:26;101414.53;;;9.75;67.16
5812;BME280;2932;52.400;9.558;2023-03-04T10:56:59;101421.59;;;9.98;66.80
5812;BME280;2932;52.400;9.558;2023-03-04T11:01:56;101428.59;;;10.13;67.34
5812;BME280;2932;52.400;9.558;2023-03-04T11:04:23;101431.72;;;10.63;66.34
5812;BME280;2932;52.400;9.558;2023-03-04T11:06:50;101439.97;;;10.97;65.86
5812;BME280;2932;52.400;9.558;2023-03-04T11:09:34;101423.19;;;11.02;65.02
5812;BME280;2932;52.400;9.558;2023-03-04T11:12:01;101436.38;;;11.06;64.19
5812;BME280;2932;52.400;9.558;2023-03-04T11:14:34;101438.66;;;11.12;63.76
5812;BME280;2932;52.400;9.558;2023-03-04T11:17:23;101446.31;;;11.15;64.29
5812;BME280;2932;52.400;9.558;2023-03-04T11:19:55;101432.69;;;11.40;63.59
5812;BME280;2932;52.400;9.558;2023-03-04T11:22:22;101428.31;;;11.30;63.67
5812;BME280;2932;52.400;9.558;2023-03-04T11:24:56;101429.03;;;11.10;62.77
5812;BME280;2932;52.400;9.558;2023-03-04T11:32:30;101411.97;;;12.05;61.60
5812;BME280;2932;52.400;9.558;2023-03-04T11:38:23;101405.81;;;13.64;58.59
5812;BME280;2932;52.400;9.558;2023-03-04T11:40:53;101400.56;;;15.23;56.20
5812;BME280;2932;52.400;9.558;2023-03-04T11:43:31;101390.94;;;15.52;52.95
5812;BME280;2932;52.400;9.558;2023-03-04T12:09:01;101381.91;;;13.14;55.81
5812;BME280;2932;52.400;9.558;2023-03-04T12:14:15;101378.06;;;12.61;57.15
5812;BME280;2932;52.400;9.558;2023-03-04T12:19:42;101382.09;;;10.41;59.53
5812;BME280;2932;52.400;9.558;2023-03-04T12:22:25;101370.25;;;11.04;59.33
5812;BME280;2932;52.400;9.558;2023-03-04T12:27:43;101360.28;;;11.79;58.34
5812;BME280;2932;52.400;9.558;2023-03-04T12:44:22;101355.16;;;14.35;52.00
5812;BME280;2932;52.400;9.558;2023-03-04T12:47:10;101350.59;;;14.02;51.41
5812;BME280;2932;52.400;9.558;2023-03-04T12:52:15;101347.09;;;13.17;52.91
5812;BME280;2932;52.400;9.558;2023-03-04T12:54:49;101362.75;;;12.76;54.42
5812;BME280;2932;52.400;9.558;2023-03-04T12:57:26;101368.84;;;12.69;55.46
5812;BME280;2932;52.400;9.558;2023-03-04T13:00:03;101354.41;;;11.81;57.32
5812;BME280;2932;52.400;9.558;2023-03-04T13:10:24;101346.56;;;10.77;59.82
5812;BME280;2932;52.400;9.558;2023-03-04T13:12:53;101343.22;;;10.37;60.08
5812;BME280;2932;52.400;9.558;2023-03-04T13:15:29;101346.69;;;10.81;59.53
5812;BME280;2932;52.400;9.558;2023-03-04T13:18:33;101345.53;;;10.90;58.98
5812;BME280;2932;52.400;9.558;2023-03-04T13:21:06;101334.31;;;10.87;59.00
5812;BME280;2932;52.400;9.558;2023-03-04T13:23:39;101341.06;;;11.45;58.77
5812;BME280;2932;52.400;9.558;2023-03-04T13:28:40;101324.59;;;11.78;57.70
5812;BME280;2932;52.400;9.558;2023-03-04T13:31:17;101329.16;;;10.68;60.52
5812;BME280;2932;52.400;9.558;2023-03-04T13:33:48;101331.13;;;10.67;60.59
5812;BME280;2932;52.400;9.558;2023-03-04T13:36:53;101324.16;;;10.44;61.33
5812;BME280;2932;52.400;9.558;2023-03-04T13:41:50;101321.69;;;10.60;60.55
5812;BME280;2932;52.400;9.558;2023-03-04T13:46:56;101313.56;;;10.55;60.81
5812;BME280;2932;52.400;9.558;2023-03-04T13:49:22;101332.56;;;10.74;60.29
5812;BME280;2932;52.400;9.558;2023-03-04T13:51:49;101338.50;;;10.38;59.38
5812;BME280;2932;52.400;9.558;2023-03-04T13:54:30;101327.13;;;10.22;58.38
5812;BME280;2932;52.400;9.558;2023-03-04T13:59:34;101329.34;;;10.54;57.64
5812;BME280;2932;52.400;9.558;2023-03-04T14:02:11;101330.22;;;10.38;58.48
5812;BME280;2932;52.400;9.558;2023-03-04T14:04:44;101334.44;;;10.99;58.52
5812;BME280;2932;52.400;9.558;2023-03-04T14:12:31;101329.88;;;10.39;59.78
5812;BME280;2932;52.400;9.558;2023-03-04T14:15:00;101338.00;;;10.18;60.89
5812;BME280;2932;52.400;9.558;2023-03-04T14:17:36;101337.78;;;10.75;60.02
5812;BME280;2932;52.400;9.558;2023-03-04T14:20:03;101331.09;;;10.76;59.82
5812;BME280;2932;52.400;9.558;2023-03-04T14:22:32;101344.66;;;10.43;60.72
5812;BME280;2932;52.400;9.558;2023-03-04T14:25:00;101346.81;;;10.20;60.80
5812;BME280;2932;52.400;9.558;2023-03-04T14:27:27;101345.78;;;9.82;62.06
5812;BME280;2932;52.400;9.558;2023-03-04T14:29:57;101350.34;;;9.86;62.91
5812;BME280;2932;52.400;9.558;2023-03-04T14:32:23;101344.97;;;10.16;63.71
5812;BME280;2932;52.400;9.558;2023-03-04T14:34:50;101345.97;;;10.46;64.33
5812;BME280;2932;52.400;9.558;2023-03-04T14:37:25;101343.16;;;10.72;63.79
5812;BME280;2932;52.400;9.558;2023-03-04T14:39:55;101338.22;;;10.86;63.39
5812;BME280;2932;52.400;9.558;2023-03-04T14:42:23;101325.59;;;10.59;62.11
5812;BME280;2932;52.400;9.558;2023-03-04T14:44:54;101327.03;;;10.74;62.08
5812;BME280;2932;52.400;9.558;2023-03-04T14:47:34;101323.94;;;10.75;61.56
5812;BME280;2932;52.400;9.558;2023-03-04T14:50:20;101322.41;;;10.86;61.16
5812;BME280;2932;52.400;9.558;2023-03-04T14:52:47;101320.19;;;11.18;60.29
5812;BME280;2932;52.400;9.558;2023-03-04T14:55:20;101321.84;;;10.72;60.45
5812;BME280;2932;52.400;9.558;2023-03-04T14:57:48;101310.00;;;9.77;61.29
5812;BME280;2932;52.400;9.558;2023-03-04T15:02:47;101301.09;;;10.31;60.05
5812;BME280;2932;52.400;9.558;2023-03-04T15:05:19;101298.81;;;9.99;60.24
5812;BME280;2932;52.400;9.558;2023-03-04T15:08:31;101312.59;;;9.73;61.15
5812;BME280;2932;52.400;9.558;2023-03-04T15:10:54;101309.38;;;9.88;60.36
5812;BME280;2932;52.400;9.558;2023-03-04T15:16:03;101310.00;;;9.77;60.60
5812;BME280;2932;52.400;9.558;2023-03-04T15:18:31;101314.41;;;10.12;60.22
5812;BME280;2932;52.400;9.558;2023-03-04T15:21:00;101317.31;;;10.07;60.66